createdAt,value
2022-09-03T00:00:51.915Z,54.50
2022-09-03T00:03:21.253Z,54.16
2022-09-03T00:05:51.781Z,54.53
2022-09-03T00:08:23.287Z,54.18
2022-09-03T00:10:54.345Z,54.38
2022-09-03T00:13:24.430Z,54.01
2022-09-03T00:15:54.646Z,53.92
2022-09-03T00:18:24.842Z,53.36
2022-09-03T00:20:54.970Z,53.40
2022-09-03T00:23:23.414Z,52.98
2022-09-03T00:25:53.505Z,51.98
2022-09-03T00:28:24.309Z,51.86
2022-09-03T00:30:57.604Z,51.61
2022-09-03T00:33:27.676Z,51.01
2022-09-03T00:35:56.675Z,50.65
2022-09-03T00:38:24.209Z,50.62
2022-09-03T00:41:03.328Z,50.98
2022-09-03T00:43:39.461Z,50.94
2022-09-03T00:46:17.118Z,50.58
2022-09-03T00:48:49.144Z,50.51
2022-09-03T00:51:29.206Z,50.31
2022-09-03T00:54:01.500Z,50.46
2022-09-03T00:56:37.148Z,50.24
2022-09-03T00:59:12.490Z,50.54
2022-09-03T01:01:47.225Z,50.50
2022-09-03T01:04:36.421Z,50.72
2022-09-03T01:07:10.005Z,50.72
2022-09-03T01:09:48.986Z,50.45
2022-09-03T01:12:20.120Z,50.82
2022-09-03T01:14:53.299Z,50.96
2022-09-03T01:17:28.350Z,50.56
2022-09-03T01:20:11.475Z,51.22
2022-09-03T01:22:49.317Z,51.30
2022-09-03T01:25:18.519Z,51.23
2022-09-03T01:27:53.265Z,51.39
2022-09-03T01:30:24.017Z,52.17
2022-09-03T01:32:57.705Z,53.25
2022-09-03T01:35:30.218Z,53.68
2022-09-03T01:38:06.764Z,53.46
2022-09-03T01:40:39.374Z,54.03
2022-09-03T01:43:15.793Z,54.21
2022-09-03T01:45:51.524Z,54.08
2022-09-03T01:48:31.945Z,53.87
2022-09-03T01:51:04.509Z,54.48
2022-09-03T01:53:38.984Z,54.52
2022-09-03T01:56:18.576Z,54.80
2022-09-03T01:58:50.213Z,54.67
2022-09-03T02:01:23.210Z,54.38
2022-09-03T02:03:50.978Z,54.95
2022-09-03T02:06:20.642Z,55.59
2022-09-03T02:08:48.111Z,55.72
2022-09-03T02:11:15.748Z,56.53
2022-09-03T02:13:46.096Z,57.36
2022-09-03T02:16:15.191Z,57.30
2022-09-03T02:18:46.042Z,57.02
2022-09-03T02:21:16.278Z,57.66
2022-09-03T02:23:43.768Z,58.35
2022-09-03T02:26:13.062Z,59.00
2022-09-03T02:28:40.528Z,58.98
2022-09-03T02:31:08.252Z,58.84
2022-09-03T02:33:37.995Z,58.29
2022-09-03T02:36:08.440Z,58.33
2022-09-03T02:38:35.959Z,58.88
2022-09-03T02:41:03.877Z,60.49
2022-09-03T02:43:35.274Z,60.79
2022-09-03T02:46:03.359Z,61.53
2022-09-03T02:48:30.876Z,61.95
2022-09-03T02:50:58.445Z,61.92
2022-09-03T02:53:28.278Z,62.31
2022-09-03T02:55:58.612Z,61.37
2022-09-03T02:58:26.287Z,62.26
2022-09-03T03:00:53.948Z,62.03
2022-09-03T03:03:21.940Z,61.76
2022-09-03T03:05:50.599Z,62.08
2022-09-03T03:08:21.415Z,62.48
2022-09-03T03:10:52.097Z,62.21
2022-09-03T03:13:19.778Z,62.50
2022-09-03T03:15:47.835Z,62.58
2022-09-03T03:18:15.414Z,63.63
2022-09-03T03:20:44.241Z,62.77
2022-09-03T03:23:11.946Z,62.74
2022-09-03T03:25:40.052Z,63.26
2022-09-03T03:28:09.138Z,62.67
2022-09-03T03:30:38.497Z,63.45
2022-09-03T03:33:06.037Z,63.29
2022-09-03T03:35:33.674Z,63.72
2022-09-03T03:38:01.182Z,63.74
2022-09-03T03:40:28.683Z,63.15
2022-09-03T03:42:58.415Z,64.35
2022-09-03T03:45:27.252Z,64.71
2022-09-03T03:47:58.036Z,65.05
2022-09-03T03:50:26.104Z,65.69
2022-09-03T03:52:53.588Z,65.68
2022-09-03T03:55:21.074Z,65.90
2022-09-03T03:57:48.568Z,66.26
2022-09-03T04:00:16.693Z,66.44
2022-09-03T04:02:46.974Z,67.60
2022-09-03T04:05:14.534Z,68.13
2022-09-03T04:07:42.006Z,68.69
2022-09-03T04:10:10.077Z,68.25
2022-09-03T04:12:37.639Z,67.38
2022-09-03T04:15:06.782Z,67.64
2022-09-03T04:17:34.251Z,66.88
2022-09-03T04:20:03.259Z,67.30
2022-09-03T04:22:30.734Z,69.17
2022-09-03T04:24:58.184Z,68.48
2022-09-03T04:27:25.809Z,70.71
2022-09-03T04:29:53.266Z,72.97
2022-09-03T04:32:38.350Z,76.79
2022-09-03T04:35:07.557Z,82.41
2022-09-03T04:37:35.018Z,83.34
2022-09-03T04:40:02.584Z,83.16
2022-09-03T04:42:30.134Z,85.85
2022-09-03T04:44:57.666Z,88.55
2022-09-03T04:47:25.128Z,91.27
2022-09-03T04:49:54.029Z,93.71
2022-09-03T04:52:22.830Z,94.48
2022-09-03T04:54:50.291Z,96.38
2022-09-03T04:57:17.925Z,95.90
2022-09-03T04:59:45.355Z,97.19
2022-09-03T05:02:13.985Z,99.60
2022-09-03T05:04:41.594Z,100.00
2022-09-03T05:07:09.976Z,100.00
2022-09-03T05:09:38.993Z,100.00
2022-09-03T05:12:07.637Z,100.00
2022-09-03T05:14:35.470Z,100.00
2022-09-03T05:17:03.118Z,100.00
2022-09-03T05:19:31.454Z,100.00
2022-09-03T05:21:59.054Z,100.00
2022-09-03T05:24:26.951Z,100.00
2022-09-03T05:26:56.002Z,100.00
2022-09-03T05:29:24.210Z,100.00
2022-09-03T05:31:51.942Z,100.00
2022-09-03T05:34:19.657Z,100.00
2022-09-03T05:36:49.818Z,100.00
2022-09-03T05:39:17.663Z,100.00
2022-09-03T05:41:45.750Z,100.00
2022-09-03T05:44:15.098Z,100.00
2022-09-03T05:46:42.774Z,100.00
2022-09-03T05:49:11.610Z,100.00
2022-09-03T05:51:40.355Z,100.00
2022-09-03T05:54:08.578Z,100.00
2022-09-03T05:56:39.661Z,100.00
2022-09-03T05:59:09.278Z,100.00
2022-09-03T06:01:40.035Z,100.00
2022-09-03T06:04:09.579Z,100.00
2022-09-03T06:06:39.305Z,100.00
2022-09-03T06:09:09.229Z,100.00
2022-09-03T06:11:37.822Z,100.00
2022-09-03T06:14:08.465Z,100.00
2022-09-03T06:16:39.913Z,100.00
2022-09-03T06:19:10.786Z,100.00
2022-09-03T06:21:42.738Z,100.00
2022-09-03T06:24:11.998Z,100.00
2022-09-03T06:26:41.041Z,100.00
2022-09-03T06:29:11.200Z,100.00
2022-09-03T06:31:40.506Z,100.00
2022-09-03T06:34:08.589Z,100.00
2022-09-03T06:36:36.291Z,100.00
2022-09-03T06:39:04.598Z,100.00
2022-09-03T06:41:35.371Z,100.00
2022-09-03T06:44:05.466Z,100.00
2022-09-03T06:46:34.813Z,100.00
2022-09-03T06:49:04.388Z,100.00
2022-09-03T06:51:33.987Z,100.00
2022-09-03T06:54:03.924Z,100.00
2022-09-03T06:56:37.311Z,100.00
2022-09-03T06:59:08.828Z,100.00
2022-09-03T07:01:37.357Z,100.00
2022-09-03T07:04:06.753Z,100.00
2022-09-03T07:06:38.499Z,100.00
2022-09-03T07:09:06.485Z,100.00
2022-09-03T07:11:35.857Z,100.00
2022-09-03T07:14:04.998Z,100.00
2022-09-03T07:16:35.360Z,100.00
2022-09-03T07:19:04.555Z,100.00
2022-09-03T07:21:36.691Z,100.00
2022-09-03T07:24:06.120Z,100.00
2022-09-03T07:26:35.888Z,100.00
2022-09-03T07:29:04.051Z,100.00
2022-09-03T07:31:33.967Z,100.00
2022-09-03T07:34:05.075Z,100.00
2022-09-03T07:36:43.142Z,100.00
2022-09-03T07:39:12.362Z,100.00
2022-09-03T07:41:42.686Z,100.00
2022-09-03T07:44:10.607Z,100.00
2022-09-03T07:46:40.468Z,100.00
2022-09-03T07:49:08.392Z,100.00
2022-09-03T07:51:39.481Z,100.00
2022-09-03T07:54:10.752Z,100.00
2022-09-03T07:56:39.357Z,100.00
2022-09-03T07:59:07.446Z,100.00
2022-09-03T08:01:36.935Z,100.00
2022-09-03T08:04:10.914Z,100.00
2022-09-03T08:06:40.995Z,100.00
2022-09-03T08:09:11.300Z,100.00
2022-09-03T08:11:41.552Z,100.00
2022-09-03T08:14:11.687Z,100.00
2022-09-03T08:16:41.852Z,100.00
2022-09-03T08:19:11.199Z,100.00
2022-09-03T08:21:42.164Z,100.00
2022-09-03T08:24:11.227Z,100.00
2022-09-03T08:26:41.616Z,100.00
2022-09-03T08:29:10.423Z,100.00
2022-09-03T08:31:38.690Z,100.00
2022-09-03T08:34:08.073Z,100.00
2022-09-03T08:36:38.220Z,100.00
2022-09-03T08:39:09.953Z,100.00
2022-09-03T08:41:50.289Z,100.00
2022-09-03T08:44:25.130Z,100.00
2022-09-03T08:46:56.848Z,100.00
2022-09-03T08:49:32.183Z,100.00
2022-09-03T08:52:03.508Z,100.00
2022-09-03T08:54:33.946Z,96.17
2022-09-03T08:57:03.776Z,96.29
2022-09-03T08:59:33.124Z,96.89
2022-09-03T09:02:12.117Z,99.30
2022-09-03T09:04:54.746Z,100.00
2022-09-03T09:07:28.460Z,97.73
2022-09-03T09:10:04.482Z,95.23
2022-09-03T09:12:44.196Z,92.74
2022-09-03T09:15:20.921Z,95.04
2022-09-03T09:17:58.809Z,96.09
2022-09-03T09:20:36.846Z,94.29
2022-09-03T09:23:06.819Z,91.93
2022-09-03T09:25:42.973Z,90.91
2022-09-03T09:28:17.940Z,94.35
2022-09-03T09:30:47.451Z,93.27
2022-09-03T09:33:15.847Z,94.84
2022-09-03T09:35:43.974Z,94.15
2022-09-03T09:38:13.151Z,94.93
2022-09-03T09:40:46.439Z,100.00
2022-09-03T09:43:17.245Z,97.29
2022-09-03T09:45:46.929Z,100.00
2022-09-03T09:48:21.319Z,100.00
2022-09-03T09:50:49.041Z,100.00
2022-09-03T09:53:21.600Z,98.68
2022-09-03T09:55:52.803Z,98.65
2022-09-03T09:58:23.893Z,100.00
2022-09-03T10:01:00.466Z,97.20
2022-09-03T10:03:29.946Z,92.55
2022-09-03T10:06:21.197Z,87.07
2022-09-03T10:08:49.401Z,86.77
2022-09-03T10:11:21.345Z,89.20
2022-09-03T10:13:50.389Z,95.62
2022-09-03T10:16:27.498Z,94.46
2022-09-03T10:19:04.104Z,93.76
2022-09-03T10:21:36.456Z,91.42
2022-09-03T10:24:20.344Z,93.65
2022-09-03T10:26:49.473Z,95.11
2022-09-03T10:29:21.192Z,95.11
2022-09-03T10:32:01.614Z,93.32
2022-09-03T10:37:15.292Z,90.12
2022-09-03T10:39:58.883Z,90.30
2022-09-03T10:42:42.357Z,90.88
2022-09-03T10:45:19.601Z,91.60
2022-09-03T10:48:18.181Z,90.88
2022-09-03T10:50:49.752Z,88.36
2022-09-03T10:53:39.652Z,89.42
2022-09-03T10:56:13.237Z,88.95
2022-09-03T10:58:52.949Z,86.51
2022-09-03T11:01:28.979Z,85.79
2022-09-03T11:04:15.144Z,89.15
2022-09-03T11:06:52.146Z,88.79
2022-09-03T11:09:24.868Z,86.50
2022-09-03T11:11:56.246Z,87.89
2022-09-03T11:14:35.179Z,87.94
2022-09-03T11:17:10.121Z,86.31
2022-09-03T11:19:48.126Z,86.41
2022-09-03T11:22:20.983Z,85.60
2022-09-03T11:24:56.573Z,88.44
2022-09-03T11:27:37.123Z,88.31
2022-09-03T11:30:08.686Z,89.31
2022-09-03T11:32:49.732Z,88.63
2022-09-03T11:35:28.848Z,89.67
2022-09-03T11:38:01.425Z,87.18
2022-09-03T11:40:35.799Z,84.40
2022-09-03T11:43:14.593Z,78.46
2022-09-03T11:45:44.253Z,74.53
2022-09-03T11:48:20.152Z,69.24
2022-09-03T11:50:55.833Z,69.16
2022-09-03T11:53:28.183Z,69.18
2022-09-03T11:55:59.823Z,70.23
2022-09-03T11:58:32.812Z,74.54
2022-09-03T12:01:03.901Z,75.22
2022-09-03T12:03:43.218Z,73.17
2022-09-03T12:06:29.209Z,73.22
2022-09-03T12:09:17.512Z,75.06
2022-09-03T12:11:58.842Z,76.17
2022-09-03T12:14:37.341Z,79.04
2022-09-03T12:17:15.019Z,83.08
2022-09-03T12:19:53.379Z,84.72
2022-09-03T12:22:24.118Z,80.87
2022-09-03T12:24:51.985Z,77.20
2022-09-03T12:27:24.609Z,76.85
2022-09-03T12:29:57.915Z,74.17
2022-09-03T12:32:30.131Z,73.36
2022-09-03T12:34:57.796Z,71.39
2022-09-03T12:40:21.988Z,65.60
2022-09-03T12:42:50.450Z,66.80
2022-09-03T12:45:22.990Z,67.93
2022-09-03T12:47:53.263Z,67.14
2022-09-03T12:50:23.275Z,65.35
2022-09-03T12:52:54.257Z,65.43
2022-09-03T12:55:34.334Z,64.36
2022-09-03T12:58:11.401Z,63.46
2022-09-03T13:00:46.531Z,64.53
2022-09-03T13:03:21.087Z,66.64
2022-09-03T13:05:53.876Z,67.13
2022-09-03T13:08:24.410Z,69.46
2022-09-03T13:10:54.650Z,69.25
2022-09-03T13:13:25.154Z,69.02
2022-09-03T13:16:01.978Z,67.99
2022-09-03T13:18:42.134Z,67.75
2022-09-03T13:21:18.743Z,68.96
2022-09-03T13:24:03.397Z,66.37
2022-09-03T13:26:43.221Z,65.86
2022-09-03T13:29:35.426Z,64.22
2022-09-03T13:32:17.197Z,62.68
2022-09-03T13:34:52.042Z,61.20
2022-09-03T13:37:26.781Z,59.78
2022-09-03T13:39:59.966Z,63.23
2022-09-03T13:42:33.598Z,63.03
2022-09-03T13:45:07.650Z,62.31
2022-09-03T13:48:02.190Z,60.80
2022-09-03T13:50:42.195Z,59.66
2022-09-03T13:53:19.454Z,59.59
2022-09-03T13:55:56.734Z,57.19
2022-09-03T13:58:30.966Z,56.50
2022-09-03T14:01:11.579Z,57.82
2022-09-03T14:03:48.952Z,57.72
2022-09-03T14:06:30.899Z,58.48
2022-09-03T14:09:07.666Z,58.96
2022-09-03T14:11:50.432Z,63.09
2022-09-03T14:14:30.599Z,63.02
2022-09-03T14:17:03.092Z,62.13
2022-09-03T14:19:40.179Z,62.23
2022-09-03T14:22:15.008Z,63.94
2022-09-03T14:24:50.161Z,66.65
2022-09-03T14:27:26.764Z,68.47
2022-09-03T14:29:59.389Z,69.77
2022-09-03T14:32:44.125Z,70.45
2022-09-03T14:35:39.567Z,75.11
2022-09-03T14:38:52.290Z,75.46
2022-09-03T14:41:37.613Z,76.33
2022-09-03T14:44:33.919Z,76.05
2022-09-03T14:47:15.214Z,76.89
2022-09-03T14:49:58.533Z,78.20
2022-09-03T14:52:54.586Z,78.93
2022-09-03T14:55:50.622Z,82.03
2022-09-03T14:58:36.228Z,84.20
2022-09-03T15:01:08.594Z,87.86
2022-09-03T15:04:04.406Z,90.02
2022-09-03T15:06:42.685Z,89.70
2022-09-03T15:09:23.874Z,89.11
2022-09-03T15:11:56.800Z,88.22
2022-09-03T15:14:31.034Z,86.73
2022-09-03T15:17:01.936Z,86.40
2022-09-03T15:19:58.201Z,86.04
2022-09-03T15:22:43.991Z,85.72
2022-09-03T15:25:23.971Z,90.20
2022-09-03T15:28:06.850Z,94.28
2022-09-03T15:30:40.900Z,97.80
2022-09-03T15:33:22.128Z,100.00
2022-09-03T15:36:12.625Z,100.00
2022-09-03T15:38:46.193Z,100.00
2022-09-03T15:41:33.696Z,100.00
2022-09-03T15:44:03.343Z,100.00
2022-09-03T15:46:39.488Z,100.00
2022-09-03T15:49:19.306Z,100.00
2022-09-03T15:51:57.531Z,100.00
2022-09-03T15:54:37.255Z,100.00
2022-09-03T15:57:11.119Z,100.00
2022-09-03T15:59:42.547Z,100.00
2022-09-03T16:02:16.035Z,100.00
2022-09-03T16:05:09.945Z,100.00
2022-09-03T16:07:56.299Z,100.00
2022-09-03T16:10:39.115Z,100.00
2022-09-03T16:13:14.734Z,100.00
2022-09-03T16:15:47.070Z,100.00
2022-09-03T16:18:24.336Z,100.00
2022-09-03T16:20:59.930Z,100.00
2022-09-03T16:23:33.536Z,100.00
2022-09-03T16:26:06.235Z,100.00
2022-09-03T16:28:42.912Z,100.00
2022-09-03T16:31:21.284Z,100.00
2022-09-03T16:34:01.607Z,100.00
2022-09-03T16:36:42.241Z,100.00
2022-09-03T16:39:20.654Z,100.00
2022-09-03T16:41:57.286Z,100.00
2022-09-03T16:44:33.778Z,100.00
2022-09-03T16:47:10.049Z,100.00
2022-09-03T16:49:55.673Z,100.00
2022-09-03T16:52:39.431Z,100.00
2022-09-03T16:55:22.572Z,100.00
2022-09-03T16:58:01.621Z,100.00
2022-09-03T17:00:45.561Z,100.00
2022-09-03T17:03:41.019Z,100.00
2022-09-03T17:06:25.958Z,100.00
2022-09-03T17:09:02.227Z,100.00
2022-09-03T17:12:00.305Z,100.00
2022-09-03T17:15:01.548Z,100.00
2022-09-03T17:17:48.705Z,100.00
2022-09-03T17:20:22.598Z,100.00
2022-09-03T17:23:09.642Z,100.00
2022-09-03T17:25:39.029Z,100.00
2022-09-03T17:28:22.645Z,100.00
2022-09-03T17:30:58.022Z,100.00
2022-09-03T17:33:47.415Z,100.00
2022-09-03T17:36:18.518Z,100.00
2022-09-03T17:39:22.274Z,100.00
2022-09-03T17:41:53.816Z,100.00
2022-09-03T17:44:47.280Z,100.00
2022-09-03T17:47:35.213Z,100.00
2022-09-03T17:50:14.058Z,100.00
2022-09-03T17:52:48.490Z,100.00
2022-09-03T17:55:25.315Z,100.00
2022-09-03T17:57:58.897Z,100.00
2022-09-03T18:00:34.951Z,100.00
2022-09-03T18:03:09.698Z,100.00
2022-09-03T18:05:46.941Z,100.00
2022-09-03T18:08:23.089Z,100.00
2022-09-03T18:11:08.242Z,100.00
2022-09-03T18:13:47.534Z,100.00
2022-09-03T18:16:20.691Z,100.00
2022-09-03T18:18:52.137Z,100.00
2022-09-03T18:21:41.308Z,100.00
2022-09-03T18:24:42.213Z,100.00
2022-09-03T18:27:33.683Z,100.00
2022-09-03T18:30:22.686Z,100.00
2022-09-03T18:33:08.159Z,100.00
2022-09-03T18:35:53.754Z,100.00
2022-09-03T18:38:44.128Z,100.00
2022-09-03T18:41:43.306Z,100.00
2022-09-03T18:44:39.054Z,100.00
2022-09-03T18:51:02.080Z,100.00
2022-09-03T18:53:58.576Z,100.00
2022-09-03T18:56:53.818Z,100.00
2022-09-03T19:00:00.703Z,100.00
2022-09-03T19:02:52.164Z,100.00
2022-09-03T19:05:44.647Z,100.00
2022-09-03T19:08:36.701Z,100.00
2022-09-03T19:11:27.742Z,100.00
2022-09-03T19:14:16.626Z,100.00
2022-09-03T19:17:18.677Z,100.00
2022-09-03T19:20:20.261Z,100.00
2022-09-03T19:23:05.534Z,100.00
2022-09-03T19:25:50.953Z,100.00
2022-09-03T19:28:37.993Z,100.00
2022-09-03T19:31:49.678Z,100.00
2022-09-03T19:35:00.993Z,100.00
2022-09-03T19:37:53.934Z,100.00
2022-09-03T19:41:08.591Z,100.00
2022-09-03T19:44:03.969Z,100.00
2022-09-03T19:46:58.493Z,100.00
2022-09-03T19:49:57.409Z,100.00
2022-09-03T19:52:48.015Z,100.00
2022-09-03T19:55:34.778Z,100.00
2022-09-03T19:58:39.536Z,100.00
2022-09-03T20:01:25.286Z,100.00
2022-09-03T20:04:10.648Z,100.00
2022-09-03T20:06:57.298Z,100.00
2022-09-03T20:09:44.812Z,100.00
2022-09-03T20:12:14.389Z,100.00
2022-09-03T20:14:41.943Z,100.00
2022-09-03T20:17:14.320Z,100.00
2022-09-03T20:19:57.383Z,100.00
2022-09-03T20:22:29.743Z,100.00
2022-09-03T20:25:05.074Z,100.00
2022-09-03T20:27:39.958Z,100.00
2022-09-03T20:30:11.856Z,100.00
2022-09-03T20:33:11.179Z,100.00
2022-09-03T20:35:51.903Z,100.00
2022-09-03T20:38:38.284Z,100.00
2022-09-03T20:41:18.171Z,100.00
2022-09-03T20:44:00.783Z,100.00
2022-09-03T20:46:46.074Z,100.00
2022-09-03T20:49:26.263Z,100.00
2022-09-03T20:52:06.046Z,100.00
2022-09-03T20:54:38.867Z,100.00
2022-09-03T20:57:26.907Z,100.00
2022-09-03T21:00:05.631Z,100.00
2022-09-03T21:02:55.202Z,100.00
2022-09-03T21:05:28.046Z,100.00
2022-09-03T21:08:08.784Z,100.00
2022-09-03T21:10:46.385Z,100.00
2022-09-03T21:13:22.970Z,100.00
2022-09-03T21:15:59.103Z,100.00
2022-09-03T21:18:38.486Z,100.00
2022-09-03T21:21:20.112Z,100.00
2022-09-03T21:23:56.577Z,100.00
2022-09-03T21:26:29.272Z,100.00
2022-09-03T21:29:03.399Z,100.00
2022-09-03T21:31:38.575Z,100.00
2022-09-03T21:34:12.513Z,100.00
2022-09-03T21:36:42.677Z,100.00
2022-09-03T21:39:15.857Z,100.00
2022-09-03T21:41:54.246Z,100.00
2022-09-03T21:44:43.598Z,100.00
2022-09-03T21:47:12.682Z,100.00
2022-09-03T21:50:00.013Z,100.00
2022-09-03T21:52:34.709Z,100.00
2022-09-03T21:55:04.331Z,100.00
2022-09-03T21:57:41.144Z,100.00
2022-09-03T22:00:18.618Z,100.00
2022-09-03T22:02:47.267Z,100.00
2022-09-03T22:05:16.245Z,100.00
2022-09-03T22:08:14.343Z,100.00
2022-09-03T22:10:54.943Z,100.00
2022-09-03T22:13:31.029Z,100.00
2022-09-03T22:16:07.140Z,100.00
2022-09-03T22:18:37.889Z,100.00
2022-09-03T22:21:14.219Z,100.00
2022-09-03T22:23:55.717Z,100.00
2022-09-03T22:26:38.202Z,100.00
2022-09-03T22:29:15.420Z,100.00
2022-09-03T22:31:52.421Z,100.00
2022-09-03T22:34:31.233Z,100.00
2022-09-03T22:37:03.688Z,100.00
2022-09-03T22:39:37.392Z,100.00
2022-09-03T22:42:31.656Z,100.00
2022-09-03T22:45:24.922Z,100.00
2022-09-03T22:48:03.437Z,100.00
2022-09-03T22:50:35.138Z,100.00
2022-09-03T22:53:17.873Z,100.00
2022-09-03T22:55:51.842Z,100.00
2022-09-03T22:58:24.074Z,100.00
2022-09-03T23:01:00.054Z,100.00
2022-09-03T23:03:36.912Z,100.00
2022-09-03T23:06:07.791Z,100.00
2022-09-03T23:08:42.265Z,100.00
2022-09-03T23:11:25.702Z,100.00
2022-09-03T23:14:01.430Z,100.00
2022-09-03T23:16:38.801Z,100.00
2022-09-03T23:21:52.327Z,100.00
2022-09-03T23:24:26.638Z,100.00
2022-09-03T23:26:54.919Z,100.00
2022-09-03T23:29:27.951Z,100.00
2022-09-03T23:31:59.679Z,100.00
2022-09-03T23:34:28.464Z,100.00
2022-09-03T23:40:19.339Z,100.00
2022-09-03T23:43:13.676Z,100.00
2022-09-03T23:45:49.788Z,100.00
2022-09-03T23:48:26.294Z,100.00
2022-09-03T23:51:09.601Z,100.00
2022-09-03T23:53:46.793Z,100.00
2022-09-03T23:56:45.486Z,100.00
2022-09-03T23:59:21.052Z,100.00
